Time;durP1;ratioP1;P1;durP2;ratioP2;P2;SDS_P1;SDS_P2;PMS_P1;PMS_P2;Temp;Humidity;BMP_temperature;BMP_pressure;BME280_temperature;BME280_humidity;BME280_pressure;Samples;Min_cycle;Max_cycle;Signal;HPM_P1;HPM_P2
2024/01/19 00:01:13;;;;;;;29.40;27.77;;;;;;;2.17;64.22;101324.19;5020145;28;20044;-72
2024/01/19 00:03:39;;;;;;;30.30;27.98;;;;;;;2.15;64.57;101328.84;5017846;28;20049;-72
2024/01/19 00:06:04;;;;;;;28.98;27.55;;;;;;;2.13;64.40;101330.84;5034897;28;20484;-72
2024/01/19 00:08:30;;;;;;;27.65;26.25;;;;;;;2.13;64.61;101330.84;5023059;28;20489;-73
2024/01/19 00:10:55;;;;;;;32.55;30.58;;;;;;;2.10;64.48;101337.34;5006318;28;20037;-71
2024/01/19 00:13:21;;;;;;;28.25;26.75;;;;;;;2.09;64.40;101317.06;5034190;28;20040;-72
2024/01/19 00:15:46;;;;;;;32.75;30.90;;;;;;;2.07;64.36;101321.72;5039856;28;20031;-72
2024/01/19 00:18:11;;;;;;;30.17;28.45;;;;;;;2.06;64.58;101314.72;5028932;28;20480;-72
2024/01/19 00:20:37;;;;;;;27.17;25.70;;;;;;;2.06;64.65;101316.53;5046699;28;20040;-72
2024/01/19 00:23:03;;;;;;;30.85;28.73;;;;;;;2.04;64.41;101323.88;5024851;28;20053;-73
2024/01/19 00:25:28;;;;;;;31.77;30.08;;;;;;;2.02;64.53;101323.25;5026645;28;20069;-72
2024/01/19 00:27:54;;;;;;;31.23;29.52;;;;;;;2.01;64.58;101327.72;5037607;28;20041;-72
2024/01/19 00:30:19;;;;;;;29.85;28.35;;;;;;;2.02;64.79;101329.41;5030872;28;20029;-72
2024/01/19 00:32:45;;;;;;;32.13;29.30;;;;;;;2.02;64.54;101333.91;5039957;28;20060;-73
2024/01/19 00:35:10;;;;;;;30.63;29.08;;;;;;;2.01;64.77;101333.03;5035980;28;20072;-72
2024/01/19 00:37:35;;;;;;;27.70;26.30;;;;;;;2.01;64.53;101337.56;5040519;28;20037;-72
2024/01/19 00:40:01;;;;;;;27.73;26.35;;;;;;;2.00;64.70;101325.25;5027578;28;20034;-72
2024/01/19 00:42:26;;;;;;;27.98;26.30;;;;;;;2.00;64.71;101334.06;5018300;28;20393;-71
2024/01/19 00:44:52;;;;;;;30.05;28.30;;;;;;;2.01;64.59;101329.56;5010497;28;20112;-72
2024/01/19 00:47:19;;;;;;;33.63;31.98;;;;;;;2.03;64.29;101332.88;5033119;28;20524;-71
2024/01/19 00:49:44;;;;;;;29.27;27.67;;;;;;;2.03;64.52;101343.53;5028145;28;20050;-73
2024/01/19 00:52:10;;;;;;;29.65;27.95;;;;;;;2.03;64.61;101351.53;5040323;28;20417;-72
2024/01/19 00:54:35;;;;;;;28.00;26.45;;;;;;;2.04;64.35;101345.19;5030921;28;20526;-74
2024/01/19 00:57:02;;;;;;;29.77;28.15;;;;;;;2.04;64.55;101342.53;5010246;28;20470;-73
2024/01/19 00:59:28;;;;;;;29.55;28.10;;;;;;;2.04;64.61;101348.72;5034313;28;20479;-72
2024/01/19 01:01:53;;;;;;;33.50;31.35;;;;;;;2.05;64.76;101339.72;5034114;28;20168;-72
2024/01/19 01:04:19;;;;;;;29.23;27.73;;;;;;;2.05;64.79;101339.72;5031151;28;20041;-72
2024/01/19 01:06:44;;;;;;;27.83;26.42;;;;;;;2.05;64.76;101342.38;5034515;28;20040;-73
2024/01/19 01:09:10;;;;;;;27.60;26.23;;;;;;;2.05;64.82;101338.88;5041189;28;20482;-72
2024/01/19 01:11:35;;;;;;;27.80;26.40;;;;;;;2.05;64.63;101342.38;5024238;28;20169;-72
2024/01/19 01:14:01;;;;;;;30.35;28.65;;;;;;;2.04;64.73;101346.06;5028982;28;20092;-72
2024/01/19 01:16:29;;;;;;;28.30;26.80;;;;;;;2.04;64.61;101343.38;5030351;28;20037;-72
2024/01/19 01:18:54;;;;;;;36.05;29.77;;;;;;;2.04;64.87;101339.88;5038948;28;20076;-73
2024/01/19 01:21:19;;;;;;;27.83;26.42;;;;;;;2.05;64.34;101341.53;5040397;28;20045;-73
2024/01/19 01:23:45;;;;;;;29.00;27.60;;;;;;;2.03;64.81;101344.38;5042560;28;20032;-72
2024/01/19 01:26:10;;;;;;;27.63;26.23;;;;;;;2.02;64.91;101353.38;5034080;28;20565;-72
2024/01/19 01:28:36;;;;;;;26.77;25.35;;;;;;;2.02;64.87;101350.72;5021941;28;20447;-72
2024/01/19 01:31:01;;;;;;;31.05;29.35;;;;;;;2.02;64.90;101349.88;5022618;28;20026;-73
2024/01/19 01:33:27;;;;;;;30.13;28.63;;;;;;;2.02;64.74;101353.38;5039683;28;20034;-72
2024/01/19 01:35:52;;;;;;;24.25;22.85;;;;;;;2.02;64.56;101360.53;5025815;28;20029;-72
2024/01/19 01:38:18;;;;;;;30.00;28.50;;;;;;;2.03;64.70;101365.69;5031872;28;20455;-72
2024/01/19 01:40:43;;;;;;;29.98;28.50;;;;;;;2.03;64.53;101365.69;5030179;28;20055;-72
2024/01/19 01:43:08;;;;;;;31.95;30.35;;;;;;;2.04;64.59;101372.69;5030799;28;20038;-73
2024/01/19 01:45:34;;;;;;;25.88;24.52;;;;;;;2.04;64.54;101377.16;5025126;28;20033;-72
2024/01/19 01:48:00;;;;;;;31.77;29.98;;;;;;;2.04;64.73;101375.38;5032590;28;20038;-74
2024/01/19 01:50:25;;;;;;;27.80;26.40;;;;;;;2.04;64.81;101372.69;5057972;28;20457;-72
2024/01/19 01:52:54;;;;;;;30.17;28.63;;;;;;;2.05;64.91;101386.84;5023998;28;20069;-72
2024/01/19 01:55:20;;;;;;;28.88;27.38;;;;;;;2.05;64.72;101386.84;5027548;28;20029;-72
2024/01/19 01:57:46;;;;;;;27.90;26.50;;;;;;;2.05;64.77;101381.50;5037993;28;20086;-72
2024/01/19 02:00:14;;;;;;;27.13;25.75;;;;;;;2.04;64.59;101387.81;5045935;28;20052;-72
2024/01/19 02:02:40;;;;;;;28.23;26.75;;;;;;;2.04;64.71;101388.69;5044969;28;20032;-72
2024/01/19 02:05:06;;;;;;;30.65;29.00;;;;;;;2.04;64.59;101391.34;5032588;28;20053;-73
2024/01/19 02:07:32;;;;;;;29.40;27.90;;;;;;;2.03;64.93;101403.00;5033609;28;20073;-72
2024/01/19 02:09:58;;;;;;;29.85;28.15;;;;;;;2.03;64.53;101405.66;5004620;28;20034;-71
2024/01/19 02:12:25;;;;;;;29.05;27.55;;;;;;;2.02;64.84;101409.34;5031926;28;20533;-72
2024/01/19 02:14:51;;;;;;;27.90;26.50;;;;;;;2.02;64.88;101409.34;5032203;28;20113;-77
2024/01/19 02:17:16;;;;;;;27.10;25.75;;;;;;;2.03;64.74;101410.16;5031093;28;20114;-72
2024/01/19 02:19:41;;;;;;;27.45;25.88;;;;;;;2.03;64.58;101416.31;5038887;28;20393;-72
2024/01/19 02:22:08;;;;;;;31.48;29.63;;;;;;;2.04;64.50;101414.47;5015679;28;20103;-72
2024/01/19 02:24:34;;;;;;;33.00;31.40;;;;;;;2.03;64.93;101416.31;5038407;28;20033;-73
2024/01/19 02:27:01;;;;;;;30.20;28.58;;;;;;;2.03;64.83;101424.31;5045046;28;20041;-72
2024/01/19 02:29:26;;;;;;;27.75;26.23;;;;;;;2.03;64.79;101420.81;5022090;28;20029;-72
2024/01/19 02:31:52;;;;;;;32.17;30.63;;;;;;;2.03;64.80;101428.81;5032717;28;20033;-76
2024/01/19 02:34:17;;;;;;;27.38;25.98;;;;;;;2.03;64.84;101439.47;5035405;28;20052;-72
2024/01/19 02:36:43;;;;;;;31.52;29.90;;;;;;;2.02;64.83;101430.66;5032277;28;20033;-73
2024/01/19 02:39:09;;;;;;;28.95;27.25;;;;;;;2.03;64.66;101439.47;5016304;28;20124;-72
2024/01/19 02:41:34;;;;;;;27.92;26.52;;;;;;;2.03;64.71;101437.63;5032300;28;20026;-72
2024/01/19 02:44:00;;;;;;;28.73;27.02;;;;;;;2.03;64.54;101440.31;5011964;28;20042;-72
2024/01/19 02:46:25;;;;;;;27.88;26.45;;;;;;;2.02;64.94;101438.66;5029178;28;20061;-71
2024/01/19 02:48:51;;;;;;;26.90;25.50;;;;;;;2.01;64.66;101450.28;5044231;28;20520;-72
2024/01/19 02:51:16;;;;;;;27.60;26.20;;;;;;;2.02;64.65;101441.31;5016854;28;20046;-73
2024/01/19 02:53:41;;;;;;;30.02;28.52;;;;;;;2.01;64.54;101447.63;5019320;28;20371;-72
2024/01/19 02:56:07;;;;;;;25.83;24.30;;;;;;;2.02;64.64;101446.63;5038697;28;20040;-72
2024/01/19 02:58:32;;;;;;;29.88;28.38;;;;;;;2.01;64.68;101436.97;5023741;28;20104;-72
2024/01/19 03:00:59;;;;;;;29.60;28.00;;;;;;;2.01;64.62;101452.13;5030784;28;20061;-72
2024/01/19 03:03:25;;;;;;;27.20;25.85;;;;;;;2.00;64.78;101456.63;5046675;28;20128;-71
2024/01/19 03:05:50;;;;;;;26.38;24.90;;;;;;;2.00;64.76;101456.63;5031880;28;20120;-74
2024/01/19 03:08:16;;;;;;;27.92;26.48;;;;;;;2.00;64.41;101455.81;5034205;28;20053;-73
2024/01/19 03:10:41;;;;;;;32.53;30.92;;;;;;;2.01;64.60;101465.44;5027493;28;20029;-73
2024/01/19 03:13:07;;;;;;;33.35;30.73;;;;;;;2.00;64.60;101466.47;5006753;28;20032;-73
2024/01/19 03:15:32;;;;;;;31.45;29.80;;;;;;;2.00;64.59;101464.63;5034481;28;20029;-73
2024/01/19 03:17:58;;;;;;;29.30;27.30;;;;;;;2.00;64.89;101463.81;5029876;28;20037;-76
2024/01/19 03:20:23;;;;;;;32.22;30.60;;;;;;;2.01;64.54;101470.78;5015342;28;20398;-72
2024/01/19 03:22:48;;;;;;;29.80;28.30;;;;;;;2.02;64.66;101475.13;5026590;28;20116;-72
2024/01/19 03:25:14;;;;;;;30.60;28.88;;;;;;;2.01;64.76;101478.78;5025299;28;20395;-72
2024/01/19 03:27:39;;;;;;;29.67;28.15;;;;;;;2.01;64.93;101479.59;5028485;28;20066;-74
2024/01/19 03:30:05;;;;;;;35.00;33.08;;;;;;;2.01;64.62;101482.25;5022257;28;20048;-72
2024/01/19 03:32:31;;;;;;;26.55;25.15;;;;;;;2.00;64.65;101475.28;5023824;28;20033;-71
2024/01/19 03:34:56;;;;;;;31.70;30.10;;;;;;;2.01;64.77;101484.09;5030379;28;20546;-73
2024/01/19 03:37:21;;;;;;;32.55;30.88;;;;;;;2.01;64.85;101484.09;5020593;28;20116;-73
2024/01/19 03:39:47;;;;;;;31.88;30.08;;;;;;;2.01;64.53;101470.78;5013851;28;20525;-73
2024/01/19 03:42:12;;;;;;;26.52;24.92;;;;;;;2.01;64.46;101476.94;5030327;28;20037;-73
2024/01/19 03:44:40;;;;;;;28.02;26.42;;;;;;;2.02;64.74;101480.47;5031332;28;20041;-72
2024/01/19 03:47:05;;;;;;;32.03;30.25;;;;;;;2.02;64.37;101485.78;5042713;28;20097;-72
2024/01/19 03:49:30;;;;;;;29.70;28.05;;;;;;;2.01;64.88;101482.25;5024138;28;20140;-72
2024/01/19 03:52:05;;;;;;;32.45;30.77;;;;;;;2.00;64.86;101483.28;5019003;28;20034;-72
2024/01/19 03:54:32;;;;;;;28.95;27.42;;;;;;;2.00;64.66;101487.78;5031477;28;20040;-73
2024/01/19 03:56:59;;;;;;;31.83;30.05;;;;;;;1.99;64.58;101484.28;5027097;28;20025;-72
2024/01/19 03:59:24;;;;;;;30.98;29.42;;;;;;;2.00;64.49;101493.09;5013918;28;20033;-72
2024/01/19 04:01:50;;;;;;;26.08;24.67;;;;;;;1.99;64.56;101497.63;5029034;28;20044;-72
2024/01/19 04:04:16;;;;;;;29.35;27.70;;;;;;;1.98;64.51;101493.25;5047940;28;20044;-71
2024/01/19 04:06:42;;;;;;;32.28;30.67;;;;;;;1.99;64.61;101488.75;5037656;28;20385;-71
2024/01/19 04:09:07;;;;;;;28.35;26.75;;;;;;;1.97;64.83;101502.28;5024251;28;20120;-72
2024/01/19 04:11:36;;;;;;;29.83;28.38;;;;;;;1.98;64.49;101500.44;5021219;28;20041;-74
2024/01/19 04:14:02;;;;;;;27.58;26.17;;;;;;;1.97;64.86;101506.78;5021962;28;20489;-72
2024/01/19 04:16:28;;;;;;;26.80;25.40;;;;;;;1.97;64.55;101515.59;5022718;28;20121;-73
2024/01/19 04:18:53;;;;;;;29.50;28.08;;;;;;;1.97;64.52;101518.25;5016842;28;20414;-72
2024/01/19 04:21:19;;;;;;;34.22;32.33;;;;;;;1.97;64.47;101518.25;5018343;28;20092;-72
2024/01/19 04:23:44;;;;;;;30.75;29.17;;;;;;;1.97;64.18;101512.94;5037528;28;20037;-73
2024/01/19 04:26:11;;;;;;;29.38;27.77;;;;;;;1.98;64.45;101513.75;5040447;28;20605;-72
2024/01/19 04:28:36;;;;;;;28.00;26.50;;;;;;;1.98;64.57;101513.75;5023883;28;20031;-73
2024/01/19 04:31:01;;;;;;;27.10;25.70;;;;;;;1.98;64.76;101519.91;5034729;28;20035;-72
2024/01/19 04:33:27;;;;;;;29.85;28.30;;;;;;;1.97;64.77;101528.91;5015630;28;20378;-72
2024/01/19 04:35:52;;;;;;;31.20;29.58;;;;;;;1.97;64.36;101526.25;5004471;28;20042;-72
2024/01/19 04:38:18;;;;;;;30.08;28.38;;;;;;;1.97;64.35;101522.75;5032782;28;20044;-73
2024/01/19 04:40:43;;;;;;;30.90;29.30;;;;;;;1.97;64.71;101538.75;5020051;28;20034;-72
2024/01/19 04:43:09;;;;;;;31.00;29.17;;;;;;;1.96;64.60;101548.56;5031216;28;20060;-73
2024/01/19 04:45:35;;;;;;;27.98;26.48;;;;;;;1.97;64.58;101552.06;5028098;28;20099;-72
2024/01/19 04:48:00;;;;;;;29.27;27.77;;;;;;;1.96;64.41;101551.22;5036571;28;20076;-72
2024/01/19 04:50:26;;;;;;;32.95;31.13;;;;;;;1.95;64.70;101549.56;5028417;28;20080;-72
2024/01/19 04:52:51;;;;;;;25.90;24.60;;;;;;;1.95;64.54;101553.06;5019654;28;20432;-72
2024/01/19 04:55:16;;;;;;;26.63;25.08;;;;;;;1.94;64.64;101555.88;5020922;28;20461;-72
2024/01/19 04:57:44;;;;;;;31.23;29.60;;;;;;;1.93;64.32;101554.22;5021785;28;20029;-72
2024/01/19 05:00:10;;;;;;;29.42;27.90;;;;;;;1.93;64.44;101556.88;5024785;28;20512;-73
2024/01/19 05:02:35;;;;;;;30.00;28.40;;;;;;;1.93;64.39;101560.38;5039354;28;20041;-72
2024/01/19 05:05:01;;;;;;;27.67;26.27;;;;;;;1.93;64.53;101565.69;5030517;28;20433;-72
2024/01/19 05:07:27;;;;;;;30.30;28.70;;;;;;;1.94;64.32;101563.88;5034945;28;20028;-71
2024/01/19 05:09:52;;;;;;;28.08;26.58;;;;;;;1.93;64.44;101565.69;5027842;28;20042;-73
2024/01/19 05:12:18;;;;;;;33.15;31.20;;;;;;;1.92;64.38;101564.03;5031190;28;20088;-75
2024/01/19 05:14:46;;;;;;;28.40;26.88;;;;;;;1.92;64.45;101558.72;5021325;28;20042;-72
2024/01/19 05:17:11;;;;;;;29.20;27.58;;;;;;;1.90;64.58;101566.03;5037377;28;20044;-72
2024/01/19 05:19:36;;;;;;;27.92;26.52;;;;;;;1.92;64.32;101569.38;5035743;28;20033;-71
2024/01/19 05:22:02;;;;;;;29.50;28.00;;;;;;;1.92;64.46;101574.72;5044131;28;20037;-72
2024/01/19 05:24:27;;;;;;;29.70;28.00;;;;;;;1.90;64.36;101575.88;5031669;28;20048;-72
2024/01/19 05:26:53;;;;;;;25.85;24.55;;;;;;;1.90;64.58;101579.34;5027577;28;20095;-72
2024/01/19 05:29:18;;;;;;;27.92;26.33;;;;;;;1.90;64.62;101587.34;5038665;28;20076;-73
2024/01/19 05:31:43;;;;;;;26.58;25.17;;;;;;;1.89;64.65;101587.50;5035929;28;20414;-72
2024/01/19 05:34:09;;;;;;;29.90;28.30;;;;;;;1.90;64.50;101589.19;5052857;28;20083;-72
2024/01/19 05:36:34;;;;;;;29.73;28.23;;;;;;;1.90;64.62;101602.50;5033035;28;20080;-73
2024/01/19 05:39:00;;;;;;;31.20;29.52;;;;;;;1.90;64.66;101614.00;5031868;28;20038;-73
2024/01/19 05:41:25;;;;;;;29.00;27.27;;;;;;;1.91;64.38;101622.81;5028366;28;20488;-72
2024/01/19 05:43:50;;;;;;;27.88;26.42;;;;;;;1.92;64.67;101637.81;5050346;28;20036;-72
2024/01/19 05:46:16;;;;;;;30.67;28.88;;;;;;;1.92;64.68;101628.00;5055393;28;20037;-72
2024/01/19 05:48:41;;;;;;;28.60;27.10;;;;;;;1.91;64.57;101630.81;5021915;28;20061;-73
2024/01/19 05:51:15;;;;;;;26.83;25.42;;;;;;;1.91;64.29;101634.31;5033549;28;20103;-71
2024/01/19 05:53:40;;;;;;;30.75;28.95;;;;;;;1.91;64.41;101636.13;5016153;28;20038;-72
2024/01/19 05:56:05;;;;;;;28.05;26.55;;;;;;;1.90;64.44;101639.81;5034716;28;20047;-72
2024/01/19 05:58:31;;;;;;;32.25;30.45;;;;;;;1.90;64.54;101650.47;5044915;28;20486;-72
2024/01/19 06:00:57;;;;;;;28.92;27.42;;;;;;;1.90;64.48;101659.28;5018487;28;20474;-72
2024/01/19 06:03:22;;;;;;;29.60;27.90;;;;;;;1.91;64.33;101662.78;5034434;28;20551;-71
2024/01/19 06:05:48;;;;;;;29.60;28.13;;;;;;;1.90;64.53;101669.13;5034531;28;20052;-71
2024/01/19 06:08:13;;;;;;;28.35;26.83;;;;;;;1.91;64.60;101697.41;5032925;28;20116;-75
2024/01/19 06:10:39;;;;;;;31.70;30.00;;;;;;;1.92;64.56;101691.13;5033006;28;20029;-72
2024/01/19 06:13:04;;;;;;;29.75;28.25;;;;;;;1.93;64.54;101687.44;5024080;28;20037;-73
2024/01/19 06:15:30;;;;;;;32.20;30.35;;;;;;;1.92;64.56;101686.59;5014341;28;20034;-72
2024/01/19 06:17:55;;;;;;;30.38;28.77;;;;;;;1.92;64.31;101678.63;5013615;28;20045;-73
2024/01/19 06:20:21;;;;;;;31.08;29.35;;;;;;;1.91;64.48;101690.25;5016743;28;20045;-70
2024/01/19 06:22:46;;;;;;;30.58;29.05;;;;;;;1.91;64.43;101690.25;5045473;28;20033;-72
2024/01/19 06:25:12;;;;;;;30.70;29.20;;;;;;;1.92;64.60;101701.75;5023021;28;20037;-71
2024/01/19 06:27:38;;;;;;;32.17;30.52;;;;;;;1.92;64.31;101709.75;5035921;28;20033;-72
2024/01/19 06:30:05;;;;;;;28.98;27.35;;;;;;;1.93;64.50;101698.09;5033441;28;20099;-72
2024/01/19 06:32:30;;;;;;;33.30;31.50;;;;;;;1.92;64.36;101710.59;5047921;28;20043;-72
2024/01/19 06:34:56;;;;;;;30.02;28.00;;;;;;;1.91;64.25;101705.41;5028167;28;20382;-72
2024/01/19 06:37:21;;;;;;;31.70;29.90;;;;;;;1.91;64.11;101718.72;5040204;28;20129;-73
2024/01/19 06:39:46;;;;;;;28.88;27.35;;;;;;;1.92;64.28;101725.75;5061235;28;20044;-72
2024/01/19 06:42:13;;;;;;;30.17;28.50;;;;;;;1.92;64.55;101728.41;5022081;28;20033;-72
2024/01/19 06:44:43;;;;;;;31.05;29.45;;;;;;;1.90;64.13;101731.22;5012911;28;20033;-71
2024/01/19 06:47:09;;;;;;;28.52;27.05;;;;;;;1.92;64.62;101733.75;5028142;28;20048;-73
2024/01/19 06:49:36;;;;;;;31.38;29.58;;;;;;;1.91;64.29;101732.88;5025190;28;20490;-73
2024/01/19 06:52:04;;;;;;;31.40;29.80;;;;;;;1.92;64.42;101741.72;5035805;28;20030;-72
2024/01/19 06:54:30;;;;;;;32.42;30.55;;;;;;;1.92;64.19;101747.06;5016803;28;20084;-73
2024/01/19 06:56:56;;;;;;;27.42;25.92;;;;;;;1.93;64.47;101752.22;5019836;28;20038;-72
2024/01/19 06:59:22;;;;;;;33.45;31.52;;;;;;;1.92;64.60;101753.22;5019722;28;20033;-71
2024/01/19 07:01:47;;;;;;;30.48;28.75;;;;;;;1.92;64.48;101758.56;5034838;28;20041;-72
2024/01/19 07:04:12;;;;;;;29.20;27.67;;;;;;;1.92;64.52;101758.56;5032353;28;20072;-72
2024/01/19 07:06:38;;;;;;;28.38;26.88;;;;;;;1.93;64.36;101764.72;5036176;28;20129;-72
2024/01/19 07:09:04;;;;;;;32.30;30.70;;;;;;;1.92;64.44;101771.03;5032108;28;20041;-71
2024/01/19 07:11:29;;;;;;;30.90;29.02;;;;;;;1.91;64.62;101764.84;5029723;28;20045;-73
2024/01/19 07:13:55;;;;;;;27.90;26.40;;;;;;;1.91;64.60;101772.03;5032674;28;20107;-71
2024/01/19 07:16:21;;;;;;;28.33;26.83;;;;;;;1.92;64.36;101779.88;5036316;28;20217;-73
2024/01/19 07:18:46;;;;;;;28.20;26.48;;;;;;;1.91;64.52;101780.00;5012596;28;20470;-72
2024/01/19 07:21:12;;;;;;;32.17;30.52;;;;;;;1.91;64.50;101783.50;5046662;28;20044;-71
2024/01/19 07:23:37;;;;;;;29.77;27.98;;;;;;;1.90;64.39;101773.84;5028312;28;20037;-71
2024/01/19 07:26:03;;;;;;;31.30;29.70;;;;;;;1.91;64.49;101788.00;5035081;28;20029;-71
2024/01/19 07:28:28;;;;;;;28.55;27.05;;;;;;;1.90;64.57;101781.03;5012352;28;20380;-71
2024/01/19 07:30:53;;;;;;;31.08;29.42;;;;;;;1.90;64.51;101791.69;5028308;28;20053;-71
2024/01/19 07:33:19;;;;;;;31.27;29.67;;;;;;;1.89;64.14;101790.00;5032065;28;20041;-71
2024/01/19 07:35:44;;;;;;;31.40;29.85;;;;;;;1.89;64.37;101788.19;5037725;28;20056;-71
2024/01/19 07:38:10;;;;;;;29.92;28.38;;;;;;;1.90;64.42;101789.00;5034869;28;20143;-71
2024/01/19 07:40:35;;;;;;;30.98;29.17;;;;;;;1.90;64.53;101794.34;5044196;28;20071;-70
2024/01/19 07:43:00;;;;;;;28.90;27.42;;;;;;;1.89;64.44;101790.00;5046151;28;20458;-71
2024/01/19 07:45:26;;;;;;;34.20;32.35;;;;;;;1.88;64.48;101796.31;5029190;28;20044;-70
2024/01/19 07:47:51;;;;;;;28.67;27.23;;;;;;;1.90;64.48;101805.00;5025843;28;20385;-71
2024/01/19 07:50:17;;;;;;;27.98;26.42;;;;;;;1.89;64.33;101805.97;5027799;28;20069;-70
2024/01/19 07:52:42;;;;;;;28.65;27.00;;;;;;;1.89;64.38;101811.31;5019969;28;20524;-72
2024/01/19 07:55:08;;;;;;;32.22;30.45;;;;;;;1.88;64.41;101821.13;5019500;28;20079;-71
2024/01/19 07:57:33;;;;;;;29.73;28.00;;;;;;;1.89;64.41;101824.63;5029703;28;20037;-72
2024/01/19 07:59:59;;;;;;;26.70;25.25;;;;;;;1.88;64.44;101828.28;5033378;28;20111;-71
2024/01/19 08:02:25;;;;;;;28.40;26.90;;;;;;;1.88;64.58;101830.97;5039091;28;20482;-71
2024/01/19 08:04:50;;;;;;;28.63;27.02;;;;;;;1.88;64.52;101836.28;5037887;28;20074;-72
2024/01/19 08:07:15;;;;;;;32.05;29.38;;;;;;;1.88;64.20;101844.28;5026701;28;20371;-71
2024/01/19 08:09:41;;;;;;;31.08;29.30;;;;;;;1.87;64.07;101845.28;5014084;28;20112;-72
2024/01/19 08:12:06;;;;;;;28.33;26.73;;;;;;;1.87;64.33;101854.09;5042672;28;20025;-72
2024/01/19 08:14:32;;;;;;;26.23;24.67;;;;;;;1.87;64.24;101848.78;5026497;28;20041;-72
2024/01/19 08:16:57;;;;;;;28.58;27.08;;;;;;;1.87;64.54;101861.28;5027313;28;20125;-76
2024/01/19 08:19:23;;;;;;;30.15;28.65;;;;;;;1.86;64.47;101854.25;5020720;28;20122;-73
2024/01/19 08:21:48;;;;;;;26.88;25.40;;;;;;;1.87;64.49;101855.94;5030517;28;20087;-71
2024/01/19 08:24:14;;;;;;;28.45;26.88;;;;;;;1.87;64.52;101861.28;5027426;28;20052;-72
2024/01/19 08:26:39;;;;;;;28.45;26.83;;;;;;;1.86;64.37;101862.25;5035297;28;20108;-72
2024/01/19 08:29:05;;;;;;;28.75;27.15;;;;;;;1.86;64.37;101871.06;5030608;28;20037;-71
2024/01/19 08:31:30;;;;;;;30.15;28.50;;;;;;;1.86;64.47;101876.41;5020040;28;20052;-71
2024/01/19 08:33:56;;;;;;;29.15;27.65;;;;;;;1.85;64.46;101876.56;5028702;28;20087;-71
2024/01/19 08:36:24;;;;;;;25.13;23.83;;;;;;;1.85;64.03;101879.25;5011052;28;20032;-71
2024/01/19 08:38:55;;;;;;;29.98;28.23;;;;;;;1.84;64.43;101869.56;5027793;28;20041;-70
2024/01/19 08:41:21;;;;;;;29.10;27.60;;;;;;;1.84;64.58;101874.88;5004424;28;20029;-72
2024/01/19 08:43:46;;;;;;;29.80;28.10;;;;;;;1.84;64.30;101880.22;5032149;28;20068;-73
2024/01/19 08:46:12;;;;;;;28.77;27.13;;;;;;;1.84;64.35;101882.88;5021566;28;20076;-70
2024/01/19 08:48:37;;;;;;;31.23;29.50;;;;;;;1.84;64.18;101890.88;4996078;28;20030;-72
2024/01/19 08:51:03;;;;;;;30.20;28.35;;;;;;;1.82;64.47;101890.22;5034482;28;20140;-71
2024/01/19 08:53:28;;;;;;;28.38;26.88;;;;;;;1.80;64.63;101894.84;5024687;28;20088;-72
2024/01/19 08:55:54;;;;;;;29.95;28.33;;;;;;;1.79;64.45;101899.34;5013319;28;20034;-71
2024/01/19 08:58:20;;;;;;;27.45;25.98;;;;;;;1.79;64.36;101903.81;5012261;28;20034;-70
2024/01/19 09:00:45;;;;;;;32.53;30.63;;;;;;;1.78;64.13;101908.31;5025708;28;20038;-71
2024/01/19 09:03:10;;;;;;;29.23;27.58;;;;;;;1.79;64.49;101919.81;5036538;28;20471;-72
2024/01/19 09:05:36;;;;;;;33.30;31.40;;;;;;;1.78;64.46;101923.47;5013267;28;20038;-71
2024/01/19 09:08:02;;;;;;;28.40;26.83;;;;;;;1.79;64.14;101925.13;5028290;28;20034;-70
2024/01/19 09:10:29;;;;;;;30.50;28.92;;;;;;;1.78;64.60;101923.47;5019001;28;20053;-70
2024/01/19 09:12:54;;;;;;;31.30;29.60;;;;;;;1.78;64.48;101926.16;5024730;28;20033;-71
2024/01/19 09:15:20;;;;;;;30.27;28.67;;;;;;;1.77;64.57;101922.66;5020270;28;20398;-71
2024/01/19 09:17:45;;;;;;;31.35;29.52;;;;;;;1.77;64.24;101933.31;5013576;28;20497;-71
2024/01/19 09:20:11;;;;;;;27.63;26.08;;;;;;;1.77;64.56;101935.13;5017587;28;20065;-71
2024/01/19 09:22:36;;;;;;;30.75;29.05;;;;;;;1.75;64.53;101932.63;5020136;28;20101;-72
2024/01/19 09:25:02;;;;;;;30.33;28.52;;;;;;;1.75;64.41;101929.13;5020456;28;20439;-70
2024/01/19 09:27:28;;;;;;;30.45;28.80;;;;;;;1.75;64.73;101934.44;5022451;28;20051;-70
2024/01/19 09:29:53;;;;;;;26.23;24.77;;;;;;;1.74;64.60;101933.63;5032345;28;20108;-72
2024/01/19 09:32:18;;;;;;;27.48;25.70;;;;;;;1.75;64.39;101937.94;5017241;28;20034;-71
2024/01/19 09:34:47;;;;;;;33.22;31.27;;;;;;;1.75;64.27;101940.59;5040487;28;20501;-72
2024/01/19 09:37:12;;;;;;;31.65;30.05;;;;;;;1.74;64.50;101941.63;5014765;28;20066;-70
2024/01/19 09:39:38;;;;;;;32.08;29.00;;;;;;;1.74;64.55;101949.59;5014275;28;20076;-70
2024/01/19 09:42:08;;;;;;;29.67;27.65;;;;;;;1.75;64.58;101961.91;5040800;28;20029;-71
2024/01/19 09:44:35;;;;;;;26.98;25.25;;;;;;;1.75;64.53;101961.09;5030237;28;20137;-72
2024/01/19 09:47:21;;;;;;;29.98;28.27;;;;;;;1.75;64.49;101961.91;5059132;28;20072;-70
2024/01/19 09:50:03;;;;;;;34.17;31.95;;;;;;;1.75;64.39;101969.09;5013348;28;20053;-70
2024/01/19 09:52:50;;;;;;;25.63;24.23;;;;;;;1.75;64.42;101982.41;5022690;28;20030;-70
2024/01/19 09:55:18;;;;;;;29.50;27.90;;;;;;;1.74;64.17;101981.56;5020697;28;20030;-71
2024/01/19 09:57:48;;;;;;;29.70;27.97;;;;;;;1.75;64.34;101993.06;5012551;28;20029;-70
2024/01/19 10:00:18;;;;;;;28.02;26.55;;;;;;;1.75;64.77;101993.88;5014323;28;20045;-69
2024/01/19 10:02:49;;;;;;;29.88;28.08;;;;;;;1.74;64.54;101994.88;5038837;28;20045;-70
2024/01/19 10:05:16;;;;;;;28.65;26.58;;;;;;;1.75;64.62;101993.06;5030454;28;20048;-71
2024/01/19 10:07:43;;;;;;;30.88;29.15;;;;;;;1.77;64.77;102002.56;5034897;28;20021;-70
2024/01/19 10:10:10;;;;;;;30.83;28.92;;;;;;;1.76;64.74;102016.84;5020214;28;20135;-69
2024/01/19 10:12:37;;;;;;;32.67;30.98;;;;;;;1.76;64.53;102000.88;5029231;28;20113;-70
2024/01/19 10:15:09;;;;;;;27.92;26.45;;;;;;;1.75;64.34;102007.22;5015769;28;20034;-71
2024/01/19 10:17:35;;;;;;;27.83;26.35;;;;;;;1.76;64.74;102008.88;5025058;28;20382;-71
2024/01/19 10:20:01;;;;;;;29.90;28.25;;;;;;;1.76;64.52;102000.03;5032990;28;20034;-70
2024/01/19 10:22:27;;;;;;;29.30;27.80;;;;;;;1.76;64.39;102006.19;5012619;28;20386;-70
2024/01/19 10:25:10;;;;;;;31.65;28.63;;;;;;;1.75;64.69;102023.19;5016566;28;20082;-70
2024/01/19 10:27:46;;;;;;;28.40;26.80;;;;;;;1.75;64.68;102015.19;5024367;28;20037;-71
2024/01/19 10:30:16;;;;;;;27.58;26.08;;;;;;;1.75;64.58;102017.84;5028851;28;20029;-70
2024/01/19 10:32:44;;;;;;;26.33;24.90;;;;;;;1.77;64.34;102020.38;5032661;28;20099;-71
2024/01/19 10:35:20;;;;;;;31.55;29.35;;;;;;;1.77;64.59;102023.06;5031320;28;20032;-72
2024/01/19 10:37:46;;;;;;;32.03;29.55;;;;;;;1.79;64.73;102021.03;5034190;28;20039;-74
2024/01/19 10:40:23;;;;;;;29.85;27.77;;;;;;;1.79;64.77;102018.38;5028757;28;20057;-69
2024/01/19 10:42:56;;;;;;;29.17;27.38;;;;;;;1.80;64.44;102015.56;5012963;28;20026;-70
2024/01/19 10:45:30;;;;;;;28.50;27.05;;;;;;;1.82;64.70;102010.09;5013678;28;20033;-69
2024/01/19 10:47:58;;;;;;;31.75;29.92;;;;;;;1.83;64.79;102019.75;5024596;28;20033;-71
2024/01/19 10:50:26;;;;;;;28.30;26.38;;;;;;;1.82;64.51;102015.44;5015349;28;20041;-70
2024/01/19 10:52:52;;;;;;;28.23;26.52;;;;;;;1.82;64.95;102016.25;5014298;28;20044;-70
2024/01/19 10:55:29;;;;;;;25.77;24.35;;;;;;;1.83;64.91;102023.25;5031815;28;20025;-70
2024/01/19 10:58:10;;;;;;;28.98;27.35;;;;;;;1.83;64.94;102025.91;5039566;28;20033;-71
2024/01/19 11:00:36;;;;;;;26.45;25.05;;;;;;;1.85;64.96;102015.13;5040195;28;20076;-70
2024/01/19 11:03:03;;;;;;;31.92;29.85;;;;;;;1.86;64.79;102011.44;5051234;28;20061;-72
2024/01/19 11:05:30;;;;;;;29.90;28.30;;;;;;;1.87;64.94;102016.63;5012453;28;20037;-70
2024/01/19 11:07:57;;;;;;;30.48;28.67;;;;;;;1.88;64.60;102017.47;5015719;28;20030;-71
2024/01/19 11:10:25;;;;;;;29.02;27.23;;;;;;;1.89;64.96;102017.31;5013004;28;20042;-70
2024/01/19 11:13:01;;;;;;;32.13;30.13;;;;;;;1.88;64.78;102020.13;5018469;28;20033;-72